This is the latest recevied weather packets stored in our database for station/object KK4WXG. If no packets are shown the sender has not sent any weather packets the latest 1 day(s).
| Time | Temp. | Humidity | Pressure | Rain* | Wind** | Luminosity | Snow |
|---|---|---|---|---|---|---|---|
| 1778029138 | 23.33° C | 34% | 1009 hPa | 0 mm | 3.13 m/s, 197° | 0 W/m² | - |
| 1778028835 | 23.33° C | 33% | 1008.8 hPa | 0 mm | 4.02 m/s, 205° | 0 W/m² | - |
| 1778028531 | 23.33° C | 33% | 1009.1 hPa | 0 mm | 4.02 m/s, 200° | 0 W/m² | - |
| 1778028229 | 23.33° C | 33% | 1008.8 hPa | 0 mm | 3.13 m/s, 195° | 0 W/m² | - |
| 1778027925 | 23.33° C | 32% | 1008.9 hPa | 0 mm | 4.47 m/s, 222° | 0 W/m² | - |
| 1778027621 | 23.89° C | 31% | 1008.8 hPa | 0 mm | 5.81 m/s, 209° | 0 W/m² | - |
| 1778027318 | 23.89° C | 32% | 1008.5 hPa | 0 mm | 4.47 m/s, 208° | 0 W/m² | - |
| 1778027014 | 23.89° C | 31% | 1008.8 hPa | 0 mm | 2.24 m/s, 206° | 0 W/m² | - |
| 1778026709 | 23.89° C | 31% | 1008.5 hPa | 0 mm | 3.58 m/s, 215° | 1 W/m² | - |
| 1778026407 | 23.89° C | 31% | 1008.5 hPa | 0 mm | 2.68 m/s, 207° | 2 W/m² | - |
| 1778026104 | 24.44° C | 31% | 1008.5 hPa | 0 mm | 3.13 m/s, 213° | 3 W/m² | - |
| 1778025802 | 24.44° C | 31% | 1008.5 hPa | 0 mm | 2.68 m/s, 211° | 5 W/m² | - |
| 1778025498 | 24.44° C | 31% | 1008.6 hPa | 0 mm | 3.58 m/s, 207° | 7 W/m² | - |
| 1778025196 | 24.44° C | 30% | 1008.4 hPa | 0 mm | 4.47 m/s, 219° | 10 W/m² | - |
| 1778024893 | 25° C | 30% | 1008.4 hPa | 0 mm | 3.13 m/s, 183° | 17 W/m² | - |
| 1778024590 | 25° C | 31% | 1008.3 hPa | 0 mm | 4.92 m/s, 216° | 22 W/m² | - |
| 1778024287 | 25° C | 30% | 1008.4 hPa | 0 mm | 4.47 m/s, 210° | 24 W/m² | - |
| 1778023985 | 25° C | 32% | 1008.3 hPa | 0 mm | 2.68 m/s, 206° | 26 W/m² | - |
| 1778023682 | 25.56° C | 30% | 1008.3 hPa | 0 mm | 7.6 m/s, 219° | 33 W/m² | - |
| 1778023379 | 25.56° C | 31% | 1008.2 hPa | 0 mm | 4.92 m/s, 218° | 48 W/m² | - |
| 1778023075 | 25.56° C | 31% | 1008.3 hPa | 0 mm | 4.02 m/s, 210° | 66 W/m² | - |
| 1778022774 | 25.56° C | 30% | 1008.2 hPa | 0 mm | 4.92 m/s, 212° | 69 W/m² | - |
| 1778022472 | 26.11° C | 30% | 1008 hPa | 0 mm | 5.81 m/s, 213° | 89 W/m² | - |
| 1778022169 | 26.11° C | 29% | 1008.4 hPa | 0 mm | 5.81 m/s, 204° | 93 W/m² | - |
| 1778021865 | 25.56° C | 31% | 1008.2 hPa | 0 mm | 4.92 m/s, 204° | 91 W/m² | - |
* Rain latest hour (hover to see other rain measurements)
** Current wind speed in m/s (hover to see current wind gust speed)